4XCWZ LLHZ-LLHA
Flight info
| Callsign | 4XCWZ |
|---|---|
| Flight time | N/A |
| Altitude | 1200 |
| Route | CVFR |
| Aircraft | C172/L-S/C |
Departure
| Time | 2026-04-24 21:33 |
|---|---|
| Airport | Herzliya Airport (LLHZ) |
Arrival
| Time | N/A |
|---|---|
| Airport | Uri Michaeli Haifa International Airport (LLHA) |
| Time | Latitude | Longitude | Altitude | Speed | Heading |
|---|---|---|---|---|---|
| 2026-04-24 21:18 | 32.18191 | 34.82793 | 96 ft | 0 kts | 108° |
| 2026-04-24 21:22 | 32.18189 | 34.82806 | 96 ft | 4 kts | 86° |
| 2026-04-24 21:23 | 32.18190 | 34.82808 | 96 ft | 4 kts | 77° |
| 2026-04-24 21:23 | 32.18193 | 34.82828 | 96 ft | 6 kts | 82° |
| 2026-04-24 21:23 | 32.18185 | 34.82862 | 96 ft | 4 kts | 111° |
| 2026-04-24 21:23 | 32.18176 | 34.82891 | 96 ft | 5 kts | 109° |
| 2026-04-24 21:24 | 32.18165 | 34.82928 | 96 ft | 4 kts | 109° |
| 2026-04-24 21:24 | 32.18149 | 34.82978 | 97 ft | 7 kts | 112° |
| 2026-04-24 21:24 | 32.18130 | 34.83024 | 98 ft | 5 kts | 120° |
| 2026-04-24 21:24 | 32.18115 | 34.83052 | 98 ft | 3 kts | 130° |
| 2026-04-24 21:25 | 32.18107 | 34.83076 | 99 ft | 4 kts | 110° |
| 2026-04-24 21:25 | 32.18094 | 34.83122 | 100 ft | 8 kts | 110° |
| 2026-04-24 21:25 | 32.18072 | 34.83198 | 102 ft | 12 kts | 109° |
| 2026-04-24 21:25 | 32.18041 | 34.83298 | 104 ft | 12 kts | 107° |
| 2026-04-24 21:26 | 32.18017 | 34.83379 | 106 ft | 8 kts | 109° |
| 2026-04-24 21:26 | 32.18002 | 34.83431 | 107 ft | 6 kts | 110° |
| 2026-04-24 21:26 | 32.17983 | 34.83494 | 109 ft | 10 kts | 109° |
| 2026-04-24 21:26 | 32.17956 | 34.83586 | 111 ft | 11 kts | 111° |
| 2026-04-24 21:27 | 32.17938 | 34.83648 | 114 ft | 5 kts | 111° |
| 2026-04-24 21:27 | 32.17918 | 34.83715 | 118 ft | 12 kts | 109° |
| 2026-04-24 21:27 | 32.17899 | 34.83782 | 120 ft | 6 kts | 113° |
| 2026-04-24 21:27 | 32.17891 | 34.83807 | 122 ft | 2 kts | 110° |
| 2026-04-24 21:28 | 32.17884 | 34.83831 | 122 ft | 7 kts | 110° |
| 2026-04-24 21:28 | 32.17880 | 34.83851 | 124 ft | 0 kts | 75° |
| 2026-04-24 21:30 | 32.17889 | 34.83862 | 124 ft | 11 kts | 23° |
| 2026-04-24 21:31 | 32.17932 | 34.83788 | 123 ft | 10 kts | 287° |
| 2026-04-24 21:31 | 32.17939 | 34.83764 | 122 ft | 6 kts | 287° |
| 2026-04-24 21:31 | 32.17986 | 34.83596 | 110 ft | 36 kts | 288° |
| 2026-04-24 21:31 | 32.18091 | 34.83245 | 102 ft | 54 kts | 288° |
| 2026-04-24 21:32 | 32.18221 | 34.82848 | 120 ft | 52 kts | 288° |
| 2026-04-24 21:32 | 32.18489 | 34.82754 | 218 ft | 52 kts | 17° |
| 2026-04-24 21:32 | 32.18918 | 34.82894 | 277 ft | 76 kts | 19° |
| 2026-04-24 21:32 | 32.19166 | 34.83322 | 543 ft | 77 kts | 105° |
| 2026-04-24 21:33 | 32.19047 | 34.84008 | 551 ft | 94 kts | 70° |
| 2026-04-24 21:33 | 32.19225 | 34.84494 | 574 ft | 98 kts | 61° |
| 2026-04-24 21:33 | 32.19665 | 34.85417 | 757 ft | 97 kts | 55° |
| 2026-04-24 21:33 | 32.20013 | 34.86116 | 841 ft | 99 kts | 58° |
| 2026-04-24 21:34 | 32.20332 | 34.86803 | 865 ft | 93 kts | 57° |
| 2026-04-24 21:34 | 32.20631 | 34.87466 | 867 ft | 95 kts | 58° |
| 2026-04-24 21:34 | 32.21001 | 34.88139 | 880 ft | 92 kts | 46° |
| 2026-04-24 21:34 | 32.21635 | 34.88281 | 792 ft | 100 kts | 1° |
| 2026-04-24 21:35 | 32.22318 | 34.88236 | 749 ft | 100 kts | 357° |
| 2026-04-24 21:35 | 32.22959 | 34.88307 | 818 ft | 85 kts | 15° |
| 2026-04-24 21:35 | 32.23543 | 34.88506 | 856 ft | 86 kts | 21° |
| 2026-04-24 21:35 | 32.23716 | 34.88341 | 938 ft | 91 kts | 202° |
| 2026-04-24 21:36 | 32.23016 | 34.88298 | 881 ft | 105 kts | 178° |
| 2026-04-24 21:36 | 32.22225 | 34.88295 | 694 ft | 117 kts | 179° |
| 2026-04-24 21:36 | 32.21464 | 34.88115 | 674 ft | 113 kts | 223° |
| 2026-04-24 21:36 | 32.20960 | 34.87443 | 750 ft | 105 kts | 232° |
| 2026-04-24 21:37 | 32.20511 | 34.86728 | 699 ft | 113 kts | 238° |
| 2026-04-24 21:37 | 32.20072 | 34.85974 | 689 ft | 108 kts | 239° |
| 2026-04-24 21:37 | 32.19620 | 34.85253 | 678 ft | 111 kts | 235° |
| 2026-04-24 21:37 | 32.19154 | 34.84536 | 552 ft | 109 kts | 238° |
| 2026-04-24 21:38 | 32.18682 | 34.83853 | 486 ft | 105 kts | 224° |
| 2026-04-24 21:38 | 32.18135 | 34.83276 | 560 ft | 99 kts | 237° |
| 2026-04-24 21:38 | 32.18251 | 34.82767 | 537 ft | 79 kts | 351° |
| 2026-04-24 21:38 | 32.18804 | 34.82831 | 442 ft | 71 kts | 9° |
| 2026-04-24 21:39 | 32.19191 | 34.82931 | 577 ft | 50 kts | 33° |
| 2026-04-24 21:39 | 32.19131 | 34.83485 | 564 ft | 90 kts | 102° |
| 2026-04-24 21:39 | 32.18946 | 34.84217 | 598 ft | 92 kts | 102° |
| 2026-04-24 21:39 | 32.18760 | 34.84949 | 582 ft | 92 kts | 106° |
| 2026-04-24 21:40 | 32.18422 | 34.85456 | 593 ft | 73 kts | 184° |
| 2026-04-24 21:40 | 32.17913 | 34.85260 | 441 ft | 78 kts | 198° |
| 2026-04-24 21:40 | 32.17585 | 34.84922 | 380 ft | 61 kts | 289° |
| 2026-04-24 21:40 | 32.17717 | 34.84456 | 257 ft | 60 kts | 287° |
| 2026-04-24 21:41 | 32.17876 | 34.83975 | 154 ft | 63 kts | 292° |
| 2026-04-24 21:41 | 32.17999 | 34.83559 | 110 ft | 32 kts | 291° |
| 2026-04-24 21:41 | 32.18061 | 34.83333 | 103 ft | 16 kts | 259° |
| 2026-04-24 21:41 | 32.18024 | 34.83333 | 105 ft | 3 kts | 177° |
| 2026-04-24 21:42 | 32.18017 | 34.83334 | 105 ft | 0 kts | 176° |